createdAt,value
2022-09-22T00:00:02.157Z,35.78
2022-09-22T00:00:33.729Z,36.04
2022-09-22T00:01:05.213Z,36.04
2022-09-22T00:01:36.794Z,36.00
2022-09-22T00:02:08.293Z,35.94
2022-09-22T00:02:39.705Z,36.08
2022-09-22T00:03:11.086Z,36.03
2022-09-22T00:03:42.486Z,35.90
2022-09-22T00:04:13.871Z,36.32
2022-09-22T00:04:45.308Z,36.21
2022-09-22T00:05:16.699Z,36.11
2022-09-22T00:05:48.097Z,35.94
2022-09-22T00:06:19.491Z,36.02
2022-09-22T00:06:50.894Z,36.30
2022-09-22T00:07:22.280Z,36.00
2022-09-22T00:07:53.688Z,36.02
2022-09-22T00:08:25.075Z,36.04
2022-09-22T00:08:56.514Z,35.80
2022-09-22T00:09:27.912Z,36.21
2022-09-22T00:09:59.587Z,36.06
2022-09-22T00:10:30.982Z,35.88
2022-09-22T00:11:02.386Z,36.00
2022-09-22T00:11:33.778Z,36.22
2022-09-22T00:12:05.184Z,36.19
2022-09-22T00:12:36.597Z,36.29
2022-09-22T00:13:07.985Z,35.78
2022-09-22T00:13:39.368Z,35.85
2022-09-22T00:14:10.757Z,36.43
2022-09-22T00:14:42.176Z,36.09
2022-09-22T00:15:13.651Z,35.93
2022-09-22T00:15:45.036Z,36.20
2022-09-22T00:16:16.489Z,36.18
2022-09-22T00:16:47.900Z,35.84
2022-09-22T00:17:19.540Z,36.26
2022-09-22T00:17:50.934Z,36.24
2022-09-22T00:18:22.329Z,36.05
2022-09-22T00:18:53.725Z,35.83
2022-09-22T00:19:25.127Z,36.06
2022-09-22T00:19:56.508Z,35.86
2022-09-22T00:20:28.013Z,36.34
2022-09-22T00:20:59.437Z,35.73
2022-09-22T00:21:30.827Z,35.91
2022-09-22T00:22:02.226Z,36.31
2022-09-22T00:22:33.642Z,36.11
2022-09-22T00:23:05.034Z,36.11
2022-09-22T00:23:36.433Z,36.38
2022-09-22T00:24:07.918Z,36.02
2022-09-22T00:24:39.442Z,36.32
2022-09-22T00:25:10.857Z,36.37
2022-09-22T00:25:42.508Z,36.04
2022-09-22T00:26:13.909Z,36.26
2022-09-22T00:26:45.313Z,36.17
2022-09-22T00:27:16.721Z,36.22
2022-09-22T00:27:48.129Z,36.12
2022-09-22T00:28:19.516Z,36.20
2022-09-22T00:28:50.905Z,35.98
2022-09-22T00:29:22.288Z,36.38
2022-09-22T00:29:53.682Z,36.31
2022-09-22T00:30:25.064Z,35.81
2022-09-22T00:30:56.549Z,36.12
2022-09-22T00:31:28.005Z,35.81
2022-09-22T00:32:02.440Z,36.06
2022-09-22T00:32:36.376Z,36.10
2022-09-22T00:33:07.759Z,35.91
2022-09-22T00:33:39.150Z,36.08
2022-09-22T00:34:10.552Z,36.05
2022-09-22T00:34:41.943Z,36.36
2022-09-22T00:35:13.350Z,35.89
2022-09-22T00:35:44.735Z,36.09
2022-09-22T00:36:16.234Z,35.71
2022-09-22T00:36:47.633Z,35.88
2022-09-22T00:37:19.219Z,36.06
2022-09-22T00:37:50.606Z,36.36
2022-09-22T00:38:21.993Z,36.07
2022-09-22T00:38:53.384Z,35.91
2022-09-22T00:39:24.779Z,35.91
2022-09-22T00:39:56.173Z,36.25
2022-09-22T00:40:27.632Z,36.31
2022-09-22T00:40:59.065Z,36.19
2022-09-22T00:41:30.497Z,36.15
2022-09-22T00:42:01.889Z,36.12
2022-09-22T00:42:33.284Z,36.18
2022-09-22T00:43:04.684Z,36.43
2022-09-22T00:43:36.081Z,36.23
2022-09-22T00:44:07.558Z,36.11
2022-09-22T00:44:39.032Z,36.27
2022-09-22T00:45:10.416Z,35.94
2022-09-22T00:45:41.801Z,36.24
2022-09-22T00:46:13.258Z,36.43
2022-09-22T00:46:44.809Z,36.37
2022-09-22T00:47:16.273Z,36.44
2022-09-22T00:47:47.661Z,36.00
2022-09-22T00:48:19.068Z,36.07
2022-09-22T00:48:50.458Z,36.21
2022-09-22T00:49:21.847Z,36.25
2022-09-22T00:49:53.242Z,36.77
2022-09-22T00:50:24.641Z,36.04
2022-09-22T00:50:56.035Z,36.16
2022-09-22T00:51:27.445Z,36.24
2022-09-22T00:51:58.925Z,36.31
2022-09-22T00:52:30.315Z,36.47
2022-09-22T00:53:01.709Z,36.17
2022-09-22T00:53:33.106Z,36.37
2022-09-22T00:54:04.502Z,36.22
2022-09-22T00:54:35.894Z,36.37
2022-09-22T00:55:07.288Z,36.14
2022-09-22T00:55:38.681Z,36.24
2022-09-22T00:56:10.085Z,36.06
2022-09-22T00:56:41.469Z,36.05
2022-09-22T00:57:12.988Z,35.96
2022-09-22T00:57:44.372Z,36.33
2022-09-22T00:58:15.758Z,36.41
2022-09-22T00:58:47.156Z,35.95
2022-09-22T00:59:18.548Z,36.10
2022-09-22T00:59:49.932Z,36.26
2022-09-22T01:00:21.337Z,36.11
2022-09-22T01:00:52.786Z,36.08
2022-09-22T01:01:24.314Z,36.00
2022-09-22T01:01:55.858Z,35.62
2022-09-22T01:02:27.451Z,36.05
2022-09-22T01:02:58.837Z,35.93
2022-09-22T01:03:30.363Z,36.02
2022-09-22T01:04:01.766Z,35.62
2022-09-22T01:04:33.161Z,36.20
2022-09-22T01:05:04.572Z,36.11
2022-09-22T01:05:35.969Z,36.07
2022-09-22T01:06:07.364Z,35.87
2022-09-22T01:06:38.746Z,35.76
2022-09-22T01:07:10.136Z,35.64
2022-09-22T01:07:41.623Z,35.80
2022-09-22T01:08:13.030Z,36.12
2022-09-22T01:08:44.425Z,35.84
2022-09-22T01:09:15.816Z,35.51
2022-09-22T01:09:47.218Z,35.87
2022-09-22T01:10:18.603Z,35.89
2022-09-22T01:10:49.986Z,35.49
2022-09-22T01:11:21.384Z,36.18
2022-09-22T01:11:52.806Z,35.52
2022-09-22T01:12:24.195Z,35.92
2022-09-22T01:12:55.698Z,35.78
2022-09-22T01:13:27.119Z,35.39
2022-09-22T01:13:58.584Z,35.85
2022-09-22T01:14:29.988Z,35.50
2022-09-22T01:15:01.416Z,35.73
2022-09-22T01:15:32.804Z,35.98
2022-09-22T01:16:04.268Z,35.86
2022-09-22T01:16:35.704Z,35.67
2022-09-22T01:17:07.087Z,35.32
2022-09-22T01:17:38.622Z,36.14
2022-09-22T01:18:10.013Z,35.99
2022-09-22T01:18:41.404Z,35.93
2022-09-22T01:19:12.797Z,35.57
2022-09-22T01:19:44.206Z,35.41
2022-09-22T01:20:15.609Z,35.62
2022-09-22T01:20:47.007Z,35.37
2022-09-22T01:21:18.406Z,35.37
2022-09-22T01:21:49.812Z,35.68
2022-09-22T01:22:21.196Z,35.88
2022-09-22T01:22:52.665Z,35.31
2022-09-22T01:23:24.057Z,35.47
2022-09-22T01:23:55.475Z,35.63
2022-09-22T01:24:26.874Z,35.86
2022-09-22T01:24:58.269Z,35.55
2022-09-22T01:25:29.657Z,35.40
2022-09-22T01:26:01.049Z,35.53
2022-09-22T01:26:32.445Z,35.95
2022-09-22T01:27:03.837Z,35.63
2022-09-22T01:27:35.230Z,35.69
2022-09-22T01:28:06.723Z,35.57
2022-09-22T01:28:38.132Z,35.36
2022-09-22T01:29:09.527Z,35.33
2022-09-22T01:29:40.912Z,35.38
2022-09-22T01:30:12.306Z,35.36
2022-09-22T01:30:43.687Z,35.26
2022-09-22T01:31:15.126Z,35.37
2022-09-22T01:31:46.641Z,35.17
2022-09-22T01:32:18.079Z,35.33
2022-09-22T01:32:49.599Z,35.92
2022-09-22T01:33:21.092Z,35.51
2022-09-22T01:33:52.504Z,35.91
2022-09-22T01:34:23.893Z,35.35
2022-09-22T01:34:55.280Z,35.57
2022-09-22T01:35:26.668Z,35.30
2022-09-22T01:35:58.068Z,35.63
2022-09-22T01:36:29.458Z,35.19
2022-09-22T01:37:00.848Z,35.18
2022-09-22T01:37:32.233Z,35.31
2022-09-22T01:38:03.666Z,35.08
2022-09-22T01:38:35.086Z,35.59
2022-09-22T01:39:06.562Z,35.34
2022-09-22T01:39:38.009Z,35.59
2022-09-22T01:40:09.440Z,35.36
2022-09-22T01:40:40.935Z,35.35
2022-09-22T01:41:12.344Z,35.07
2022-09-22T01:41:43.732Z,35.27
2022-09-22T01:42:15.136Z,35.53
2022-09-22T01:42:46.531Z,35.31
2022-09-22T01:43:18.098Z,35.17
2022-09-22T01:43:49.489Z,35.08
2022-09-22T01:44:20.877Z,35.36
2022-09-22T01:44:52.267Z,35.24
2022-09-22T01:45:23.678Z,36.00
2022-09-22T01:45:55.083Z,35.31
2022-09-22T01:46:26.538Z,35.26
2022-09-22T01:46:58.062Z,35.39
2022-09-22T01:47:29.455Z,35.23
2022-09-22T01:48:00.835Z,35.43
2022-09-22T01:48:32.363Z,35.41
2022-09-22T01:49:03.759Z,35.68
2022-09-22T01:49:35.157Z,35.40
2022-09-22T01:50:06.571Z,35.09
2022-09-22T01:50:37.956Z,35.68
2022-09-22T01:51:09.344Z,35.32
2022-09-22T01:51:40.746Z,35.43
2022-09-22T01:52:12.219Z,35.24
2022-09-22T01:52:43.601Z,35.63
2022-09-22T01:53:15.027Z,35.25
2022-09-22T01:53:46.414Z,35.12
2022-09-22T01:54:17.820Z,35.15
2022-09-22T01:54:49.201Z,35.30
2022-09-22T01:55:20.644Z,35.21
2022-09-22T01:55:52.052Z,35.07
2022-09-22T01:56:23.444Z,35.06
2022-09-22T01:56:54.842Z,35.36
2022-09-22T01:57:26.364Z,35.01
2022-09-22T01:57:57.753Z,34.81
2022-09-22T01:58:29.139Z,35.12
2022-09-22T01:59:00.534Z,35.19
2022-09-22T01:59:31.924Z,34.89
2022-09-22T02:00:03.315Z,34.98
2022-09-22T02:00:34.719Z,34.93
2022-09-22T02:01:07.284Z,34.81
2022-09-22T02:01:41.202Z,35.06
2022-09-22T02:02:12.758Z,35.39
2022-09-22T02:02:44.366Z,34.92
2022-09-22T02:03:15.849Z,34.74
2022-09-22T02:03:47.261Z,35.22
2022-09-22T02:04:18.649Z,35.00
2022-09-22T02:04:50.032Z,34.92
2022-09-22T02:05:21.440Z,35.58
2022-09-22T02:05:52.840Z,34.94
2022-09-22T02:06:24.224Z,35.06
2022-09-22T02:06:55.612Z,35.26
2022-09-22T02:07:27.010Z,35.11
2022-09-22T02:07:58.468Z,34.72
2022-09-22T02:08:29.865Z,34.89
2022-09-22T02:09:01.260Z,35.00
2022-09-22T02:09:32.653Z,34.67
2022-09-22T02:10:04.040Z,34.77
2022-09-22T02:10:35.432Z,34.93
2022-09-22T02:11:07.053Z,35.19
2022-09-22T02:11:38.446Z,34.75
2022-09-22T02:12:09.833Z,34.88
2022-09-22T02:12:41.228Z,34.50
2022-09-22T02:13:12.735Z,35.05
2022-09-22T02:13:44.130Z,34.90
2022-09-22T02:14:15.540Z,34.58
2022-09-22T02:14:46.935Z,34.82
2022-09-22T02:15:18.344Z,34.83
2022-09-22T02:15:49.797Z,34.84
2022-09-22T02:16:21.292Z,35.21
2022-09-22T02:16:52.688Z,34.69
2022-09-22T02:17:24.076Z,35.07
2022-09-22T02:17:55.460Z,34.67
2022-09-22T02:18:26.918Z,34.78
2022-09-22T02:19:06.260Z,35.17
2022-09-22T02:19:43.640Z,35.32
2022-09-22T02:20:15.033Z,34.86
2022-09-22T02:20:46.424Z,34.87
2022-09-22T02:21:17.817Z,34.93
2022-09-22T02:21:49.203Z,35.23
2022-09-22T02:22:20.583Z,34.62
2022-09-22T02:22:51.978Z,34.86
2022-09-22T02:23:23.443Z,34.91
2022-09-22T02:23:54.827Z,34.90
2022-09-22T02:24:26.212Z,34.79
2022-09-22T02:24:57.607Z,34.86
2022-09-22T02:25:29.009Z,34.88
2022-09-22T02:26:00.416Z,35.16
2022-09-22T02:26:31.800Z,34.65
2022-09-22T02:27:03.189Z,35.00
2022-09-22T02:27:34.603Z,34.69
2022-09-22T02:28:05.995Z,35.27
2022-09-22T02:28:37.513Z,34.60
2022-09-22T02:29:08.956Z,34.72
2022-09-22T02:29:40.390Z,35.12
2022-09-22T02:30:11.787Z,34.64
2022-09-22T02:30:54.292Z,35.19
2022-09-22T02:31:34.581Z,34.73
2022-09-22T02:32:06.053Z,35.22
2022-09-22T02:32:37.487Z,34.82
2022-09-22T02:33:08.881Z,35.24
2022-09-22T02:33:40.423Z,35.11
2022-09-22T02:34:11.818Z,34.70
2022-09-22T02:34:43.208Z,34.73
2022-09-22T02:35:14.603Z,34.95
2022-09-22T02:35:46.012Z,34.66
2022-09-22T02:36:17.397Z,34.42
2022-09-22T02:36:48.780Z,34.85
2022-09-22T02:37:20.169Z,35.13
2022-09-22T02:37:51.553Z,34.57
2022-09-22T02:38:22.943Z,34.82
2022-09-22T02:38:54.374Z,34.64
2022-09-22T02:39:25.784Z,34.81
2022-09-22T02:39:57.176Z,35.06
2022-09-22T02:40:28.673Z,34.57
2022-09-22T02:41:00.102Z,34.90
2022-09-22T02:41:31.495Z,34.64
2022-09-22T02:42:02.895Z,34.77
2022-09-22T02:42:34.299Z,34.72
2022-09-22T02:43:05.679Z,34.89
2022-09-22T02:43:37.079Z,34.44
2022-09-22T02:44:08.613Z,34.66
2022-09-22T02:44:40.043Z,34.51
2022-09-22T02:45:11.438Z,34.37
2022-09-22T02:45:42.839Z,34.77
2022-09-22T02:46:14.244Z,34.78
2022-09-22T02:46:45.714Z,34.81
2022-09-22T02:47:17.101Z,34.49
2022-09-22T02:47:48.517Z,34.83
2022-09-22T02:48:19.930Z,34.68
2022-09-22T02:48:51.323Z,35.00
2022-09-22T02:49:22.804Z,34.60
2022-09-22T02:49:54.189Z,34.62
2022-09-22T02:50:25.580Z,35.03
2022-09-22T02:50:56.991Z,34.68
2022-09-22T02:51:28.378Z,34.84
2022-09-22T02:51:59.772Z,35.00
2022-09-22T02:52:31.185Z,34.66
2022-09-22T02:53:02.568Z,34.78
2022-09-22T02:53:33.953Z,35.05
2022-09-22T02:54:05.415Z,34.85
2022-09-22T02:54:36.971Z,34.79
2022-09-22T02:55:08.381Z,34.90
2022-09-22T02:55:39.786Z,35.07
2022-09-22T02:56:11.186Z,34.76
2022-09-22T02:56:42.574Z,34.90
2022-09-22T02:57:13.965Z,34.85
2022-09-22T02:57:45.357Z,34.40
2022-09-22T02:58:16.743Z,34.99
2022-09-22T02:58:48.152Z,35.13
2022-09-22T02:59:19.540Z,34.85
2022-09-22T02:59:51.009Z,34.82
2022-09-22T03:00:22.420Z,34.85
2022-09-22T03:00:53.828Z,34.94
2022-09-22T03:01:25.317Z,34.79
2022-09-22T03:01:56.797Z,35.02
2022-09-22T03:02:28.219Z,34.62
2022-09-22T03:02:59.624Z,34.41
2022-09-22T03:03:31.016Z,34.77
2022-09-22T03:04:02.416Z,34.54
2022-09-22T03:04:33.861Z,34.74
2022-09-22T03:05:05.457Z,34.60
2022-09-22T03:05:36.868Z,34.44
2022-09-22T03:06:08.268Z,34.55
2022-09-22T03:06:39.818Z,34.68
2022-09-22T03:07:11.207Z,34.49
2022-09-22T03:07:42.616Z,34.55
2022-09-22T03:08:14.014Z,34.57
2022-09-22T03:08:45.403Z,34.65
2022-09-22T03:09:16.794Z,34.32
2022-09-22T03:09:48.184Z,35.05
2022-09-22T03:10:19.646Z,34.69
2022-09-22T03:10:51.036Z,35.00
2022-09-22T03:11:22.427Z,34.73
2022-09-22T03:11:53.828Z,34.81
2022-09-22T03:12:25.218Z,34.47
2022-09-22T03:13:15.365Z,34.86
2022-09-22T03:13:47.624Z,34.43
2022-09-22T03:14:19.036Z,35.00
2022-09-22T03:14:50.422Z,35.02
2022-09-22T03:15:26.976Z,34.66
2022-09-22T03:15:58.647Z,34.70
2022-09-22T03:16:30.099Z,34.72
2022-09-22T03:17:01.490Z,34.59
2022-09-22T03:17:32.884Z,34.65
2022-09-22T03:18:04.266Z,34.60
2022-09-22T03:18:35.654Z,34.58
2022-09-22T03:19:07.049Z,34.75
2022-09-22T03:19:38.440Z,34.43
2022-09-22T03:20:09.832Z,34.75
2022-09-22T03:20:41.328Z,34.96
2022-09-22T03:21:12.804Z,34.24
2022-09-22T03:21:44.196Z,34.70
2022-09-22T03:22:15.591Z,34.93
2022-09-22T03:22:46.995Z,34.86
2022-09-22T03:23:18.385Z,34.50
2022-09-22T03:23:49.781Z,34.89
2022-09-22T03:24:21.177Z,34.40
2022-09-22T03:24:52.595Z,34.87
2022-09-22T03:25:23.987Z,35.16
2022-09-22T03:25:55.487Z,34.84
2022-09-22T03:26:26.876Z,34.59
2022-09-22T03:26:58.285Z,34.68
2022-09-22T03:27:29.677Z,34.89
2022-09-22T03:28:01.059Z,34.61
2022-09-22T03:28:32.548Z,34.82
2022-09-22T03:29:03.941Z,34.38
2022-09-22T03:29:35.361Z,34.82
2022-09-22T03:30:06.744Z,34.87
2022-09-22T03:30:38.159Z,34.02
2022-09-22T03:31:09.639Z,34.29
2022-09-22T03:31:41.055Z,34.34
2022-09-22T03:32:12.447Z,34.06
2022-09-22T03:32:43.841Z,34.04
2022-09-22T03:33:15.248Z,34.66
2022-09-22T03:33:51.911Z,34.49
2022-09-22T03:34:24.055Z,34.34
2022-09-22T03:34:55.467Z,33.98
2022-09-22T03:35:26.853Z,34.33
2022-09-22T03:35:58.236Z,34.04
2022-09-22T03:36:29.620Z,34.54
2022-09-22T03:37:01.006Z,34.43
2022-09-22T03:37:32.397Z,34.58
2022-09-22T03:38:03.810Z,34.71
2022-09-22T03:38:35.217Z,34.61
2022-09-22T03:39:06.864Z,34.28
2022-09-22T03:39:38.412Z,34.32
2022-09-22T03:40:09.912Z,34.27
2022-09-22T03:40:41.427Z,34.19
2022-09-22T03:41:12.892Z,34.17
2022-09-22T03:41:44.309Z,34.58
2022-09-22T03:42:15.704Z,33.83
2022-09-22T03:42:47.094Z,34.30
2022-09-22T03:43:18.488Z,33.69
2022-09-22T03:43:49.884Z,34.33
2022-09-22T03:44:21.410Z,34.41
2022-09-22T03:44:52.795Z,34.25
2022-09-22T03:45:24.188Z,34.23
2022-09-22T03:45:55.627Z,34.45
2022-09-22T03:46:27.091Z,34.46
2022-09-22T03:46:58.503Z,34.49
2022-09-22T03:47:29.888Z,34.63
2022-09-22T03:48:01.277Z,34.17
2022-09-22T03:48:32.662Z,34.46
2022-09-22T03:49:04.044Z,33.76
2022-09-22T03:49:35.559Z,34.46
2022-09-22T03:50:06.976Z,34.68
2022-09-22T03:50:38.373Z,34.16
2022-09-22T03:51:09.772Z,34.32
2022-09-22T03:51:41.159Z,33.95
2022-09-22T03:52:12.550Z,34.20
2022-09-22T03:52:43.945Z,34.72
2022-09-22T03:53:15.340Z,33.75
2022-09-22T03:53:46.724Z,34.64
2022-09-22T03:54:18.125Z,34.41
2022-09-22T03:54:49.629Z,34.51
2022-09-22T03:55:21.035Z,34.25
2022-09-22T03:55:52.424Z,34.39
2022-09-22T03:56:23.823Z,34.55
2022-09-22T03:56:55.221Z,34.34
2022-09-22T03:57:26.633Z,34.23
2022-09-22T03:57:58.042Z,34.17
2022-09-22T03:58:29.453Z,34.15
2022-09-22T03:59:00.843Z,34.11
2022-09-22T03:59:32.235Z,34.23
2022-09-22T04:00:03.667Z,34.18
2022-09-22T04:00:35.055Z,34.53
2022-09-22T04:01:06.512Z,34.10
2022-09-22T04:01:37.966Z,34.19
2022-09-22T04:02:09.419Z,34.09
2022-09-22T04:02:40.907Z,34.13
2022-09-22T04:03:12.320Z,34.22
2022-09-22T04:03:43.724Z,33.95
2022-09-22T04:04:15.132Z,34.42
2022-09-22T04:04:46.520Z,34.22
2022-09-22T04:05:18.042Z,34.40
2022-09-22T04:05:49.481Z,34.63
2022-09-22T04:06:20.873Z,34.45
2022-09-22T04:06:52.275Z,34.13
2022-09-22T04:07:23.661Z,34.21
2022-09-22T04:07:55.049Z,34.43
2022-09-22T04:08:26.474Z,34.61
2022-09-22T04:08:57.878Z,34.14
2022-09-22T04:09:29.294Z,34.45
2022-09-22T04:10:00.687Z,34.06
2022-09-22T04:10:32.126Z,34.08
2022-09-22T04:11:03.538Z,34.44
2022-09-22T04:11:34.950Z,34.30
2022-09-22T04:12:06.349Z,34.41
2022-09-22T04:12:37.753Z,34.17
2022-09-22T04:13:09.145Z,33.84
2022-09-22T04:13:45.979Z,34.42
2022-09-22T04:14:17.725Z,34.44
2022-09-22T04:14:49.128Z,34.50
2022-09-22T04:15:20.522Z,34.18
2022-09-22T04:15:52.015Z,34.11
2022-09-22T04:16:23.422Z,34.57
2022-09-22T04:16:54.945Z,34.15
2022-09-22T04:17:26.405Z,34.42
2022-09-22T04:17:57.800Z,34.23
2022-09-22T04:18:29.202Z,34.38
2022-09-22T04:19:01.110Z,34.36
2022-09-22T04:19:32.507Z,34.30
2022-09-22T04:20:03.913Z,34.15
2022-09-22T04:20:35.307Z,34.62
2022-09-22T04:21:06.776Z,34.15
2022-09-22T04:21:38.165Z,34.44
2022-09-22T04:22:09.572Z,34.43
2022-09-22T04:22:40.986Z,34.65
2022-09-22T04:23:12.368Z,34.21
2022-09-22T04:23:43.766Z,34.43
2022-09-22T04:24:15.164Z,34.35
2022-09-22T04:24:46.559Z,33.84
2022-09-22T04:25:17.952Z,34.16
2022-09-22T04:25:49.348Z,34.50
2022-09-22T04:26:20.852Z,34.37
2022-09-22T04:27:15.575Z,34.29
2022-09-22T04:27:43.612Z,34.43
2022-09-22T04:28:15.025Z,34.17
2022-09-22T04:28:46.419Z,34.02
2022-09-22T04:29:17.802Z,34.33
2022-09-22T04:29:49.219Z,34.45
2022-09-22T04:30:20.618Z,34.10
2022-09-22T04:30:52.102Z,34.44
2022-09-22T04:31:23.628Z,34.42
2022-09-22T04:31:55.139Z,34.02
2022-09-22T04:32:26.532Z,34.40
2022-09-22T04:32:57.936Z,34.45
2022-09-22T04:33:29.340Z,34.07
2022-09-22T04:34:04.168Z,34.10
2022-09-22T04:34:38.287Z,34.48
2022-09-22T04:35:09.682Z,34.25
2022-09-22T04:35:41.073Z,33.89
2022-09-22T04:36:12.467Z,33.69
2022-09-22T04:36:43.881Z,34.23
2022-09-22T04:37:15.267Z,34.32
2022-09-22T04:37:46.660Z,34.01
2022-09-22T04:38:18.054Z,34.51
2022-09-22T04:38:49.459Z,34.07
2022-09-22T04:39:23.791Z,34.30
2022-09-22T04:39:55.482Z,34.13
2022-09-22T04:40:26.929Z,34.14
2022-09-22T04:40:58.355Z,34.24
2022-09-22T04:41:29.769Z,34.23
2022-09-22T04:42:01.276Z,34.32
2022-09-22T04:42:32.670Z,34.40
2022-09-22T04:43:04.071Z,33.91
2022-09-22T04:43:35.458Z,34.21
2022-09-22T04:44:06.848Z,34.26
2022-09-22T04:44:38.236Z,34.25
2022-09-22T04:45:09.625Z,34.17
2022-09-22T04:45:41.065Z,34.09
2022-09-22T04:46:12.695Z,34.22
2022-09-22T04:46:44.165Z,33.87
2022-09-22T04:47:15.635Z,34.25
2022-09-22T04:47:47.024Z,34.41
2022-09-22T04:48:18.427Z,34.28
2022-09-22T04:48:49.814Z,34.47
2022-09-22T04:49:21.224Z,34.16
2022-09-22T04:49:52.617Z,34.65
2022-09-22T04:50:24.023Z,34.18
2022-09-22T04:50:55.414Z,34.21
2022-09-22T04:51:26.805Z,33.86
2022-09-22T04:51:58.230Z,34.19
2022-09-22T04:52:29.751Z,33.80
2022-09-22T04:53:01.145Z,34.06
2022-09-22T04:53:32.532Z,34.11
2022-09-22T04:54:03.967Z,34.48
2022-09-22T04:54:35.353Z,34.50
2022-09-22T04:55:06.759Z,34.42
2022-09-22T04:55:38.147Z,34.27
2022-09-22T04:56:09.537Z,34.43
2022-09-22T04:56:40.921Z,34.20
2022-09-22T04:57:13.691Z,34.04
2022-09-22T04:57:46.510Z,34.30
2022-09-22T04:58:17.907Z,34.54
2022-09-22T04:58:49.307Z,34.48
2022-09-22T04:59:20.698Z,34.13
2022-09-22T04:59:52.105Z,34.61
2022-09-22T05:00:23.492Z,33.98
2022-09-22T05:00:54.932Z,34.62
2022-09-22T05:01:26.431Z,34.24
2022-09-22T05:01:57.840Z,34.36
2022-09-22T05:02:29.368Z,34.10
2022-09-22T05:03:00.780Z,34.14
2022-09-22T05:03:32.353Z,33.97
2022-09-22T05:04:03.807Z,33.95
2022-09-22T05:04:35.187Z,33.80
2022-09-22T05:05:06.586Z,34.25
2022-09-22T05:05:37.981Z,34.64
2022-09-22T05:06:09.367Z,34.57
2022-09-22T05:06:40.755Z,34.43
2022-09-22T05:07:12.156Z,34.49
2022-09-22T05:07:43.620Z,34.49
2022-09-22T05:08:15.059Z,34.56
2022-09-22T05:08:46.449Z,34.12
2022-09-22T05:09:17.861Z,34.03
2022-09-22T05:09:49.249Z,34.26
2022-09-22T05:10:20.661Z,34.33
2022-09-22T05:10:52.048Z,34.36
2022-09-22T05:11:23.436Z,34.50
2022-09-22T05:11:54.820Z,33.99
2022-09-22T05:12:26.213Z,33.91
2022-09-22T05:12:57.647Z,34.24
2022-09-22T05:13:29.031Z,34.18
2022-09-22T05:14:00.421Z,34.37
2022-09-22T05:14:31.823Z,34.22
2022-09-22T05:15:03.210Z,34.51
2022-09-22T05:15:34.647Z,33.95
2022-09-22T05:16:06.171Z,33.87
2022-09-22T05:16:37.595Z,34.42
2022-09-22T05:17:09.007Z,33.80
2022-09-22T05:17:40.416Z,33.70
2022-09-22T05:18:11.950Z,33.79
2022-09-22T05:18:43.333Z,34.25
2022-09-22T05:19:14.723Z,33.91
2022-09-22T05:19:46.108Z,34.19
2022-09-22T05:20:17.501Z,34.09
2022-09-22T05:20:48.888Z,33.80
2022-09-22T05:21:20.277Z,34.11
2022-09-22T05:21:51.668Z,33.91
2022-09-22T05:22:23.059Z,33.98
2022-09-22T05:22:54.445Z,34.32
2022-09-22T05:23:25.881Z,33.74
2022-09-22T05:23:57.353Z,33.96
2022-09-22T05:24:28.781Z,34.42
2022-09-22T05:25:00.188Z,34.21
2022-09-22T05:25:31.585Z,34.21
2022-09-22T05:26:02.991Z,33.89
2022-09-22T05:26:34.381Z,33.79
2022-09-22T05:27:05.789Z,34.44
2022-09-22T05:27:37.172Z,34.22
2022-09-22T05:28:08.559Z,34.11
2022-09-22T05:28:40.065Z,34.13
2022-09-22T05:29:11.464Z,34.44
2022-09-22T05:29:42.856Z,34.21
2022-09-22T05:30:14.251Z,34.46
2022-09-22T05:30:45.656Z,34.63
2022-09-22T05:31:17.105Z,34.25
2022-09-22T05:31:48.614Z,33.98
2022-09-22T05:32:20.035Z,34.41
2022-09-22T05:32:51.426Z,34.27
2022-09-22T05:33:22.821Z,33.94
2022-09-22T05:33:54.321Z,34.28
2022-09-22T05:34:25.714Z,34.23
2022-09-22T05:34:57.109Z,34.43
2022-09-22T05:35:31.777Z,34.66
2022-09-22T05:36:05.804Z,34.42
2022-09-22T05:36:37.187Z,34.68
2022-09-22T05:37:08.576Z,34.28
2022-09-22T05:37:39.964Z,34.42
2022-09-22T05:38:11.357Z,34.05
2022-09-22T05:38:42.758Z,33.99
2022-09-22T05:39:14.186Z,34.00
2022-09-22T05:39:45.572Z,34.14
2022-09-22T05:40:17.009Z,34.34
2022-09-22T05:40:48.519Z,34.32
2022-09-22T05:41:24.977Z,33.88
2022-09-22T05:42:02.435Z,34.51
2022-09-22T05:42:33.924Z,34.43
2022-09-22T05:43:05.610Z,34.06
2022-09-22T05:43:37.085Z,34.16
2022-09-22T05:44:09.349Z,33.98
2022-09-22T05:44:41.036Z,33.96
2022-09-22T05:45:12.504Z,34.13
2022-09-22T05:45:43.968Z,34.47
2022-09-22T05:46:15.536Z,34.15
2022-09-22T05:46:47.016Z,33.89
2022-09-22T05:47:18.428Z,34.41
2022-09-22T05:47:49.835Z,33.99
2022-09-22T05:48:21.229Z,34.15
2022-09-22T05:48:52.673Z,34.47
2022-09-22T05:49:24.065Z,34.21
2022-09-22T05:49:55.496Z,34.45
2022-09-22T05:50:26.889Z,34.46
2022-09-22T05:50:58.282Z,34.41
2022-09-22T05:51:29.683Z,34.15
2022-09-22T05:52:01.072Z,34.29
2022-09-22T05:52:32.503Z,34.60
2022-09-22T05:53:03.892Z,34.38
2022-09-22T05:53:35.290Z,34.00
2022-09-22T05:54:06.791Z,34.04
2022-09-22T05:54:38.230Z,34.29
2022-09-22T05:55:09.692Z,34.27
2022-09-22T05:55:41.086Z,33.99
2022-09-22T05:56:12.478Z,34.26
2022-09-22T05:56:43.892Z,34.52
2022-09-22T05:57:15.272Z,33.73
2022-09-22T05:57:46.681Z,34.30
2022-09-22T05:58:18.082Z,34.29
2022-09-22T05:58:49.470Z,34.34
2022-09-22T05:59:20.872Z,34.28
2022-09-22T05:59:52.295Z,34.45
2022-09-22T06:00:23.725Z,34.08
2022-09-22T06:00:55.161Z,34.09
2022-09-22T06:01:26.625Z,34.37
2022-09-22T06:01:59.767Z,34.76
2022-09-22T06:02:31.896Z,34.35
2022-09-22T06:03:03.470Z,34.20
2022-09-22T06:03:35.404Z,34.28
2022-09-22T06:04:06.806Z,34.69
2022-09-22T06:04:38.255Z,34.60
2022-09-22T06:05:09.647Z,34.33
2022-09-22T06:05:41.118Z,34.37
2022-09-22T06:06:12.575Z,34.22
2022-09-22T06:06:44.028Z,34.68
2022-09-22T06:07:15.522Z,34.46
2022-09-22T06:07:46.953Z,34.70
2022-09-22T06:08:18.378Z,34.47
2022-09-22T06:08:49.806Z,34.65
2022-09-22T06:09:21.218Z,34.74
2022-09-22T06:09:52.622Z,34.75
2022-09-22T06:10:24.696Z,34.81
2022-09-22T06:10:56.193Z,34.42
2022-09-22T06:11:27.633Z,34.62
2022-09-22T06:11:59.040Z,34.69
2022-09-22T06:12:30.436Z,34.99
2022-09-22T06:13:01.856Z,34.92
2022-09-22T06:13:33.286Z,34.93
2022-09-22T06:14:04.815Z,34.96
2022-09-22T06:14:36.214Z,35.05
2022-09-22T06:15:07.733Z,35.19
2022-09-22T06:15:39.128Z,35.00
2022-09-22T06:16:10.594Z,35.16
2022-09-22T06:16:42.104Z,35.08
2022-09-22T06:17:13.646Z,34.87
2022-09-22T06:17:45.038Z,35.07
2022-09-22T06:18:18.481Z,34.96
2022-09-22T06:18:52.172Z,35.15
2022-09-22T06:19:23.629Z,35.02
2022-09-22T06:19:55.166Z,34.82
2022-09-22T06:20:26.612Z,34.85
2022-09-22T06:20:58.141Z,34.98
2022-09-22T06:21:33.403Z,35.42
2022-09-22T06:22:04.866Z,35.13
2022-09-22T06:22:36.471Z,35.11
2022-09-22T06:23:07.908Z,34.94
2022-09-22T06:23:42.730Z,35.63
2022-09-22T06:24:14.475Z,35.48
2022-09-22T06:24:45.868Z,35.13
2022-09-22T06:25:17.351Z,35.10
2022-09-22T06:25:48.848Z,35.31
2022-09-22T06:26:20.394Z,34.78
2022-09-22T06:26:52.121Z,35.31
2022-09-22T06:27:23.800Z,35.54
2022-09-22T06:27:55.673Z,35.10
2022-09-22T06:28:28.120Z,35.09
2022-09-22T06:28:59.539Z,35.23
2022-09-22T06:29:31.103Z,35.09
2022-09-22T06:30:02.575Z,35.46
2022-09-22T06:30:34.005Z,35.53
2022-09-22T06:31:05.392Z,35.26
2022-09-22T06:31:36.928Z,35.74
2022-09-22T06:32:08.471Z,35.59
2022-09-22T06:32:40.018Z,35.71
2022-09-22T06:33:11.632Z,35.62
2022-09-22T06:33:44.167Z,35.88
2022-09-22T06:34:17.586Z,36.08
2022-09-22T06:34:50.001Z,36.49
2022-09-22T06:35:21.417Z,35.51
2022-09-22T06:35:52.881Z,35.73
2022-09-22T06:36:24.341Z,36.10
2022-09-22T06:36:55.888Z,35.92
2022-09-22T06:37:27.869Z,36.11
2022-09-22T06:38:00.786Z,35.73
2022-09-22T06:38:32.755Z,35.89
2022-09-22T06:39:04.174Z,35.63
2022-09-22T06:39:37.434Z,35.78
2022-09-22T06:40:15.242Z,35.65
2022-09-22T06:40:48.789Z,35.64
2022-09-22T06:41:20.359Z,35.92
2022-09-22T06:41:51.883Z,36.01
2022-09-22T06:42:23.694Z,35.71
2022-09-22T06:42:55.816Z,36.03
2022-09-22T06:43:27.294Z,36.13
2022-09-22T06:44:11.054Z,35.64
2022-09-22T06:44:45.733Z,35.89
2022-09-22T06:45:17.123Z,35.80
2022-09-22T06:45:48.638Z,35.72
2022-09-22T06:46:20.181Z,35.96
2022-09-22T06:46:51.624Z,35.74
2022-09-22T06:47:23.020Z,35.66